Time;durP1;ratioP1;P1;durP2;ratioP2;P2;SDS_P1;SDS_P2;PMS_P1;PMS_P2;Temp;Humidity;BMP_temperature;BMP_pressure;BME280_temperature;BME280_humidity;BME280_pressure;Samples;Min_cycle;Max_cycle;Signal;HPM_P1;HPM_P2
2023/04/26 00:01:34;;;;;;;2.00;1.87;;;;;;;;;;5062391;28;20257;-95
2023/04/26 00:04:01;;;;;;;1.90;1.80;;;;;;;;;;5068225;28;20232;-95
2023/04/26 00:06:28;;;;;;;2.07;1.87;;;;;;;;;;5071556;28;20205;-94
2023/04/26 00:08:57;;;;;;;1.63;1.53;;;;;;;;;;5071702;28;20258;-90
2023/04/26 00:11:24;;;;;;;6.23;2.13;;;;;;;;;;5072517;28;20251;-93
2023/04/26 00:13:51;;;;;;;2.70;2.20;;;;;;;;;;5041311;28;20769;-94
2023/04/26 00:16:18;;;;;;;2.77;1.90;;;;;;;;;;5061734;28;20763;-93
2023/04/26 00:18:46;;;;;;;1.93;1.73;;;;;;;;;;5058109;28;20205;-93
2023/04/26 00:21:13;;;;;;;1.53;1.40;;;;;;;;;;5071025;28;20671;-93
2023/04/26 00:23:41;;;;;;;4.23;1.70;;;;;;;;;;5055001;28;20220;-93
2023/04/26 00:26:09;;;;;;;1.70;1.60;;;;;;;;;;5071702;28;20211;-93
2023/04/26 00:28:36;;;;;;;1.83;1.73;;;;;;;;;;5057367;28;20204;-93
2023/04/26 00:31:04;;;;;;;4.77;1.97;;;;;;;;;;5048734;28;20210;-93
2023/04/26 00:33:31;;;;;;;2.57;1.60;;;;;;;;;;5067310;28;20205;-93
2023/04/26 00:35:58;;;;;;;2.67;1.97;;;;;;;;;;5071139;28;20609;-92
2023/04/26 00:38:25;;;;;;;2.43;2.23;;;;;;;;;;5066732;28;20206;-94
2023/04/26 00:40:52;;;;;;;4.33;3.93;;;;;;;;;;5063722;28;20235;-93
2023/04/26 00:43:21;;;;;;;3.30;3.00;;;;;;;;;;5071203;28;20895;-92
2023/04/26 00:45:48;;;;;;;3.63;3.10;;;;;;;;;;5071701;28;20224;-92
2023/04/26 00:48:16;;;;;;;2.40;2.20;;;;;;;;;;5056530;28;20738;-94
2023/04/26 00:50:43;;;;;;;2.00;1.90;;;;;;;;;;5071543;28;20236;-94
2023/04/26 00:53:13;;;;;;;3.00;2.00;;;;;;;;;;5037714;28;20221;-93
2023/04/26 00:55:41;;;;;;;2.40;2.20;;;;;;;;;;5064437;28;20213;-95
2023/04/26 00:58:08;;;;;;;3.63;2.20;;;;;;;;;;5050988;28;20198;-93
2023/04/26 01:00:37;;;;;;;2.63;2.43;;;;;;;;;;5064594;28;20236;-94
2023/04/26 01:03:04;;;;;;;2.67;2.47;;;;;;;;;;5060506;28;20308;-94
2023/04/26 01:05:31;;;;;;;2.40;2.20;;;;;;;;;;5070408;28;20229;-94
2023/04/26 01:07:58;;;;;;;3.07;2.60;;;;;;;;;;5063106;28;20600;-93
2023/04/26 01:10:26;;;;;;;3.10;2.77;;;;;;;;;;5066934;28;20209;-94
2023/04/26 01:12:53;;;;;;;3.07;2.67;;;;;;;;;;5070584;28;20220;-94
2023/04/26 01:15:20;;;;;;;3.07;2.87;;;;;;;;;;5070445;28;20215;-94
2023/04/26 01:17:49;;;;;;;3.00;2.70;;;;;;;;;;5070776;28;20209;-95
2023/04/26 01:20:16;;;;;;;3.63;3.33;;;;;;;;;;5070623;28;20233;-94
2023/04/26 01:22:45;;;;;;;3.03;2.83;;;;;;;;;;5060653;28;20209;-94
2023/04/26 01:25:13;;;;;;;3.83;3.53;;;;;;;;;;5063925;28;20213;-93
2023/04/26 01:27:40;;;;;;;3.60;3.30;;;;;;;;;;5062550;28;20224;-94
2023/04/26 01:30:09;;;;;;;4.53;3.63;;;;;;;;;;5071874;28;20684;-94
2023/04/26 01:32:36;;;;;;;3.67;3.37;;;;;;;;;;5069741;28;20283;-94
2023/04/26 01:35:06;;;;;;;3.33;3.13;;;;;;;;;;5052232;28;20232;-95
2023/04/26 01:37:33;;;;;;;3.90;3.60;;;;;;;;;;5062975;28;20304;-94
2023/04/26 01:40:04;;;;;;;3.10;2.90;;;;;;;;;;5070192;28;20210;-93
2023/04/26 01:42:31;;;;;;;3.33;3.13;;;;;;;;;;5071941;28;20236;-95
2023/04/26 01:44:58;;;;;;;3.30;3.00;;;;;;;;;;5056942;28;20205;-94
2023/04/26 01:47:26;;;;;;;3.63;3.33;;;;;;;;;;5058793;28;20209;-94
2023/04/26 01:49:53;;;;;;;4.03;3.07;;;;;;;;;;5037157;28;20305;-94
2023/04/26 01:52:21;;;;;;;3.43;3.13;;;;;;;;;;5050679;28;20209;-95
2023/04/26 01:54:48;;;;;;;3.10;2.90;;;;;;;;;;5044393;28;20726;-94
2023/04/26 01:57:16;;;;;;;3.20;2.90;;;;;;;;;;5070081;28;20707;-93
2023/04/26 01:59:43;;;;;;;5.50;3.63;;;;;;;;;;5074535;28;20223;-94
2023/04/26 02:02:10;;;;;;;3.43;3.13;;;;;;;;;;5073760;28;20290;-94
2023/04/26 02:04:37;;;;;;;3.33;3.07;;;;;;;;;;5058335;28;20237;-93
2023/04/26 02:07:05;;;;;;;4.70;4.30;;;;;;;;;;5064209;28;20201;-93
2023/04/26 02:09:32;;;;;;;4.93;4.43;;;;;;;;;;5073772;28;20205;-94
2023/04/26 02:11:59;;;;;;;3.93;3.63;;;;;;;;;;5060447;28;20206;-92
2023/04/26 02:14:27;;;;;;;3.90;3.60;;;;;;;;;;5065443;28;20203;-92
2023/04/26 02:16:55;;;;;;;12.50;7.97;;;;;;;;;;5052545;28;20216;-93
2023/04/26 02:19:22;;;;;;;10.10;7.07;;;;;;;;;;5064187;28;20591;-92
2023/04/26 02:21:54;;;;;;;6.73;5.70;;;;;;;;;;5067179;28;20233;-91
2023/04/26 02:24:21;;;;;;;6.83;4.93;;;;;;;;;;5046792;28;20629;-93
2023/04/26 02:26:49;;;;;;;4.23;3.83;;;;;;;;;;5060096;28;20714;-92
2023/04/26 02:29:16;;;;;;;4.10;3.70;;;;;;;;;;5061871;28;20202;-91
2023/04/26 02:31:44;;;;;;;3.97;3.67;;;;;;;;;;5073028;28;20205;-91
2023/04/26 02:34:12;;;;;;;4.57;3.77;;;;;;;;;;5062015;28;20218;-91
2023/04/26 02:36:39;;;;;;;2.80;2.60;;;;;;;;;;5059711;28;20235;-90
2023/04/26 02:39:06;;;;;;;3.47;3.17;;;;;;;;;;5073416;28;20244;-91
2023/04/26 02:41:33;;;;;;;2.67;2.47;;;;;;;;;;5054447;28;20228;-91
2023/04/26 02:44:00;;;;;;;4.63;4.13;;;;;;;;;;5053889;28;20209;-92
2023/04/26 02:46:27;;;;;;;3.23;2.93;;;;;;;;;;5060632;28;20209;-92
2023/04/26 02:48:56;;;;;;;3.67;3.37;;;;;;;;;;5073140;28;20213;-90
2023/04/26 02:51:23;;;;;;;3.80;3.27;;;;;;;;;;5057393;28;20231;-93
2023/04/26 02:53:50;;;;;;;3.97;3.40;;;;;;;;;;5074167;28;20209;-91
2023/04/26 02:56:18;;;;;;;3.23;2.93;;;;;;;;;;5066880;28;20291;-92
2023/04/26 02:58:45;;;;;;;4.40;3.03;;;;;;;;;;5053137;28;20293;-92
2023/04/26 03:01:13;;;;;;;37.10;18.40;;;;;;;;;;5060241;28;20258;-91
2023/04/26 03:03:41;;;;;;;10.13;6.70;;;;;;;;;;5073055;28;20692;-91
2023/04/26 03:06:10;;;;;;;4.30;3.83;;;;;;;;;;5059968;28;20222;-91
2023/04/26 03:08:37;;;;;;;3.93;2.57;;;;;;;;;;5060510;28;20212;-91
2023/04/26 03:11:04;;;;;;;3.40;3.10;;;;;;;;;;5066144;28;20675;-91
2023/04/26 03:13:31;;;;;;;2.87;2.67;;;;;;;;;;5066564;28;20212;-91
2023/04/26 03:15:58;;;;;;;2.90;2.70;;;;;;;;;;5035889;28;20203;-87
2023/04/26 03:18:25;;;;;;;4.40;4.00;;;;;;;;;;5072045;28;20231;-87
2023/04/26 03:20:53;;;;;;;3.00;2.80;;;;;;;;;;5070065;28;20236;-86
2023/04/26 03:23:23;;;;;;;2.50;2.33;;;;;;;;;;5051740;28;20664;-86
2023/04/26 03:25:50;;;;;;;3.53;3.30;;;;;;;;;;5067996;28;20274;-87
2023/04/26 03:28:17;;;;;;;3.43;3.13;;;;;;;;;;5071641;28;20215;-89
2023/04/26 03:30:44;;;;;;;5.57;3.03;;;;;;;;;;5058733;28;20220;-89
2023/04/26 03:33:12;;;;;;;2.93;2.73;;;;;;;;;;5071902;28;20707;-88
2023/04/26 03:35:40;;;;;;;2.80;2.60;;;;;;;;;;5052239;28;20205;-88
2023/04/26 03:38:08;;;;;;;2.37;2.17;;;;;;;;;;5043497;28;20217;-85
2023/04/26 03:40:37;;;;;;;2.40;2.30;;;;;;;;;;5057310;28;20235;-88
2023/04/26 03:43:04;;;;;;;3.30;3.10;;;;;;;;;;5071502;28;20283;-89
2023/04/26 03:45:31;;;;;;;3.00;2.80;;;;;;;;;;5049274;28;20251;-88
2023/04/26 03:47:58;;;;;;;4.90;3.60;;;;;;;;;;5054945;28;20659;-88
2023/04/26 03:50:25;;;;;;;9.30;7.43;;;;;;;;;;5061383;28;20641;-88
2023/04/26 03:52:52;;;;;;;6.97;5.40;;;;;;;;;;5055891;28;20238;-88
2023/04/26 03:55:19;;;;;;;6.27;5.30;;;;;;;;;;5048790;28;20210;-87
2023/04/26 03:57:48;;;;;;;4.00;3.70;;;;;;;;;;5062925;28;20238;-87
2023/04/26 04:00:15;;;;;;;3.20;2.90;;;;;;;;;;5052652;28;20210;-87
2023/04/26 04:02:42;;;;;;;2.63;2.43;;;;;;;;;;5065803;28;20241;-87
2023/04/26 04:05:11;;;;;;;2.70;2.50;;;;;;;;;;5053600;28;20206;-87
2023/04/26 04:07:38;;;;;;;3.10;2.77;;;;;;;;;;5050734;28;20245;-86
2023/04/26 04:10:06;;;;;;;4.50;4.10;;;;;;;;;;5061957;28;20207;-89
2023/04/26 04:12:33;;;;;;;9.33;6.80;;;;;;;;;;5051313;28;20276;-88
2023/04/26 04:15:01;;;;;;;10.50;9.37;;;;;;;;;;5064719;28;20209;-88
2023/04/26 04:17:28;;;;;;;8.53;5.93;;;;;;;;;;5058668;28;20239;-88
2023/04/26 04:19:55;;;;;;;4.40;4.00;;;;;;;;;;5072719;28;20708;-88
2023/04/26 04:22:22;;;;;;;3.77;3.47;;;;;;;;;;5052319;28;20229;-89
2023/04/26 04:24:49;;;;;;;4.37;3.97;;;;;;;;;;5065111;28;20689;-88
2023/04/26 04:27:16;;;;;;;6.43;4.10;;;;;;;;;;5072560;28;20223;-88
2023/04/26 04:29:43;;;;;;;3.90;3.37;;;;;;;;;;5072217;28;20223;-88
2023/04/26 04:32:12;;;;;;;3.73;3.17;;;;;;;;;;5058881;28;20213;-88
2023/04/26 04:34:40;;;;;;;4.93;3.10;;;;;;;;;;5072194;28;20672;-88
2023/04/26 04:37:07;;;;;;;2.80;2.60;;;;;;;;;;5045723;28;20258;-89
2023/04/26 04:39:34;;;;;;;2.73;2.53;;;;;;;;;;5072891;28;20275;-88
2023/04/26 04:42:01;;;;;;;2.90;2.70;;;;;;;;;;5072635;28;20698;-89
2023/04/26 04:44:28;;;;;;;2.50;2.30;;;;;;;;;;5071559;28;20217;-88
2023/04/26 04:46:55;;;;;;;3.10;2.80;;;;;;;;;;5060155;28;20262;-88
2023/04/26 04:49:23;;;;;;;2.60;2.40;;;;;;;;;;5070279;28;20236;-89
2023/04/26 04:51:50;;;;;;;4.70;3.67;;;;;;;;;;5061699;28;20657;-88
2023/04/26 04:54:18;;;;;;;4.83;4.43;;;;;;;;;;5066818;28;20660;-88
2023/04/26 04:56:45;;;;;;;3.70;3.23;;;;;;;;;;5051006;28;20294;-88
2023/04/26 04:59:12;;;;;;;3.23;3.00;;;;;;;;;;5058860;28;20205;-89
2023/04/26 05:01:39;;;;;;;3.20;2.67;;;;;;;;;;5071917;28;20274;-88
2023/04/26 05:04:06;;;;;;;2.83;2.63;;;;;;;;;;5069009;28;20217;-88
2023/04/26 05:06:35;;;;;;;3.30;2.80;;;;;;;;;;5062621;28;20285;-89
2023/04/26 05:09:05;;;;;;;6.30;3.10;;;;;;;;;;5068394;28;20220;-88
2023/04/26 05:11:32;;;;;;;3.17;2.87;;;;;;;;;;5063377;28;20288;-88
2023/04/26 05:13:59;;;;;;;111.63;48.37;;;;;;;;;;5058375;28;20213;-88
2023/04/26 05:16:26;;;;;;;7.10;5.37;;;;;;;;;;5061396;28;20574;-87
2023/04/26 05:18:53;;;;;;;3.03;2.73;;;;;;;;;;5070332;28;20209;-89
2023/04/26 05:21:21;;;;;;;2.87;2.67;;;;;;;;;;5060981;28;20280;-89
2023/04/26 05:23:49;;;;;;;9.10;5.43;;;;;;;;;;5070557;28;20217;-89
2023/04/26 05:26:17;;;;;;;5.40;4.53;;;;;;;;;;5059920;28;20627;-88
2023/04/26 05:28:43;;;;;;;4.60;3.83;;;;;;;;;;5058013;28;20270;-89
2023/04/26 05:31:11;;;;;;;3.10;2.90;;;;;;;;;;5072372;28;20239;-89
2023/04/26 05:33:38;;;;;;;2.60;2.40;;;;;;;;;;5067542;28;20202;-89
2023/04/26 05:36:06;;;;;;;2.50;2.30;;;;;;;;;;5068468;28;20296;-89
2023/04/26 05:38:32;;;;;;;3.63;2.50;;;;;;;;;;5074741;28;20259;-88
2023/04/26 05:41:01;;;;;;;2.70;2.50;;;;;;;;;;5062739;28;20567;-88
2023/04/26 05:43:27;;;;;;;2.77;2.57;;;;;;;;;;5062183;28;20584;-89
2023/04/26 05:45:55;;;;;;;2.37;2.17;;;;;;;;;;5075048;28;20205;-89
2023/04/26 05:48:23;;;;;;;2.73;2.53;;;;;;;;;;5075043;28;20209;-88
2023/04/26 05:50:51;;;;;;;30.87;26.30;;;;;;;;;;5074626;28;20209;-88
2023/04/26 05:53:18;;;;;;;10.50;9.50;;;;;;;;;;5063234;28;20216;-89
2023/04/26 05:55:45;;;;;;;10.07;9.17;;;;;;;;;;5074000;28;20209;-89
2023/04/26 05:58:13;;;;;;;16.43;15.00;;;;;;;;;;5063596;28;20267;-90
2023/04/26 06:00:40;;;;;;;10.50;9.60;;;;;;;;;;5074938;28;20711;-89
2023/04/26 06:03:07;;;;;;;3.90;3.50;;;;;;;;;;5074813;28;20227;-92
2023/04/26 06:05:34;;;;;;;3.40;3.10;;;;;;;;;;5075202;28;20209;-89
2023/04/26 06:08:01;;;;;;;3.40;2.50;;;;;;;;;;5074961;28;20227;-89
2023/04/26 06:10:28;;;;;;;3.23;2.93;;;;;;;;;;5072513;28;20219;-88
2023/04/26 06:12:55;;;;;;;6.30;3.70;;;;;;;;;;5065126;28;20217;-89
2023/04/26 06:15:23;;;;;;;3.87;3.47;;;;;;;;;;5072271;28;20233;-89
2023/04/26 06:17:50;;;;;;;6.50;4.20;;;;;;;;;;5065069;28;20209;-89
2023/04/26 06:20:16;;;;;;;3.80;3.37;;;;;;;;;;5071679;28;20202;-89
2023/04/26 06:22:43;;;;;;;4.47;4.07;;;;;;;;;;5064421;28;20298;-89
2023/04/26 06:25:10;;;;;;;3.70;3.40;;;;;;;;;;5071356;28;20628;-89
2023/04/26 06:27:37;;;;;;;2.50;2.30;;;;;;;;;;5065152;28;20212;-89
2023/04/26 06:30:06;;;;;;;3.23;2.97;;;;;;;;;;5074570;28;20205;-89
2023/04/26 06:32:35;;;;;;;3.57;3.27;;;;;;;;;;5052714;28;20202;-90
2023/04/26 06:35:02;;;;;;;4.10;3.70;;;;;;;;;;5057236;28;20205;-90
2023/04/26 06:37:28;;;;;;;4.27;3.73;;;;;;;;;;5074312;28;20594;-89
2023/04/26 06:39:55;;;;;;;4.57;3.70;;;;;;;;;;5060950;28;20201;-89
2023/04/26 06:42:22;;;;;;;3.60;3.40;;;;;;;;;;5074420;28;20301;-90
2023/04/26 06:44:49;;;;;;;4.17;3.57;;;;;;;;;;5059804;28;20205;-90
2023/04/26 06:47:16;;;;;;;3.80;3.50;;;;;;;;;;5074391;28;20224;-89
2023/04/26 06:49:44;;;;;;;3.87;3.57;;;;;;;;;;5060793;28;20209;-90
2023/04/26 06:52:11;;;;;;;6.43;3.47;;;;;;;;;;5074649;28;20294;-90
2023/04/26 06:54:39;;;;;;;3.47;3.17;;;;;;;;;;5074662;28;20209;-90
2023/04/26 06:57:06;;;;;;;4.13;3.83;;;;;;;;;;5074430;28;20294;-90
2023/04/26 06:59:33;;;;;;;3.17;2.97;;;;;;;;;;5068602;28;20213;-90
2023/04/26 07:02:01;;;;;;;4.10;3.80;;;;;;;;;;5054293;28;20256;-87
2023/04/26 07:04:27;;;;;;;3.80;3.50;;;;;;;;;;5074051;28;20659;-87
2023/04/26 07:06:56;;;;;;;4.10;3.80;;;;;;;;;;5060908;28;20209;-88
2023/04/26 07:09:24;;;;;;;3.93;3.40;;;;;;;;;;5047684;28;20216;-88
2023/04/26 07:11:51;;;;;;;3.93;3.57;;;;;;;;;;5073552;28;20205;-88
2023/04/26 07:14:18;;;;;;;4.63;3.30;;;;;;;;;;5061385;28;20209;-88
2023/04/26 07:16:45;;;;;;;4.10;3.70;;;;;;;;;;5073323;28;20212;-87
2023/04/26 07:19:12;;;;;;;3.23;3.03;;;;;;;;;;5061856;28;20213;-87
2023/04/26 07:21:38;;;;;;;3.43;3.13;;;;;;;;;;5060183;28;20214;-88
2023/04/26 07:24:07;;;;;;;3.07;2.87;;;;;;;;;;5073916;28;20274;-87
2023/04/26 07:26:35;;;;;;;3.57;3.27;;;;;;;;;;5073713;28;20337;-88
2023/04/26 07:29:02;;;;;;;5.27;3.10;;;;;;;;;;5073505;28;20209;-87
2023/04/26 07:31:31;;;;;;;2.80;2.60;;;;;;;;;;5071557;28;20209;-87
2023/04/26 07:33:58;;;;;;;3.43;2.50;;;;;;;;;;5052678;28;20282;-88
2023/04/26 07:36:26;;;;;;;4.27;3.53;;;;;;;;;;5056458;28;20220;-87
2023/04/26 07:38:53;;;;;;;3.33;2.97;;;;;;;;;;5073792;28;20205;-87
2023/04/26 07:41:21;;;;;;;3.80;3.43;;;;;;;;;;5073373;28;20216;-87
2023/04/26 07:43:48;;;;;;;3.90;3.60;;;;;;;;;;5073387;28;20659;-87
2023/04/26 07:46:15;;;;;;;3.40;3.10;;;;;;;;;;5056486;28;20734;-87
2023/04/26 07:48:41;;;;;;;6.13;3.13;;;;;;;;;;5063194;28;20275;-88
2023/04/26 07:51:09;;;;;;;7.50;3.10;;;;;;;;;;5046057;28;20209;-87
2023/04/26 07:53:36;;;;;;;2.80;2.60;;;;;;;;;;5072596;28;20703;-87
2023/04/26 07:56:05;;;;;;;2.87;2.67;;;;;;;;;;5059479;28;20319;-87
2023/04/26 07:58:33;;;;;;;3.40;3.10;;;;;;;;;;5073049;28;20274;-87
2023/04/26 08:01:00;;;;;;;2.60;2.40;;;;;;;;;;5059735;28;20274;-87
2023/04/26 08:03:27;;;;;;;3.47;2.73;;;;;;;;;;5061544;28;20767;-87
2023/04/26 08:05:54;;;;;;;3.13;2.93;;;;;;;;;;5071019;28;20200;-87
2023/04/26 08:08:21;;;;;;;3.27;2.97;;;;;;;;;;5072677;28;20287;-88
2023/04/26 08:10:48;;;;;;;4.07;3.37;;;;;;;;;;5059434;28;20233;-86
2023/04/26 08:13:15;;;;;;;3.20;2.90;;;;;;;;;;5060891;28;20214;-86
2023/04/26 08:15:44;;;;;;;2.90;2.70;;;;;;;;;;5058150;28;20213;-88
2023/04/26 08:18:10;;;;;;;3.77;2.80;;;;;;;;;;5060543;28;20226;-87
2023/04/26 08:20:38;;;;;;;4.70;2.80;;;;;;;;;;5066477;28;20210;-87
2023/04/26 08:23:05;;;;;;;2.40;2.23;;;;;;;;;;5052799;28;20229;-87
2023/04/26 08:25:33;;;;;;;2.77;2.57;;;;;;;;;;5046272;28;20572;-87
2023/04/26 08:28:00;;;;;;;2.93;2.73;;;;;;;;;;5059397;28;20210;-87
2023/04/26 08:30:27;;;;;;;3.10;2.90;;;;;;;;;;5072727;28;20209;-87
2023/04/26 08:32:55;;;;;;;2.80;2.57;;;;;;;;;;5059053;28;20246;-87
2023/04/26 08:35:22;;;;;;;3.17;2.97;;;;;;;;;;5072634;28;20214;-86
2023/04/26 08:37:49;;;;;;;2.90;2.70;;;;;;;;;;5072554;28;20212;-88
2023/04/26 08:40:22;;;;;;;2.60;2.40;;;;;;;;;;5064072;28;20218;-87
2023/04/26 08:42:51;;;;;;;2.63;2.43;;;;;;;;;;5065707;28;20677;-88
2023/04/26 08:45:18;;;;;;;2.50;2.40;;;;;;;;;;5062428;28;20212;-87
2023/04/26 08:47:48;;;;;;;2.90;2.70;;;;;;;;;;5068931;28;20205;-86
2023/04/26 08:50:18;;;;;;;4.07;2.80;;;;;;;;;;5052136;28;20213;-87
2023/04/26 08:52:48;;;;;;;3.70;2.80;;;;;;;;;;5052479;28;20627;-88
2023/04/26 08:55:16;;;;;;;6.83;3.10;;;;;;;;;;5052550;28;20275;-87
2023/04/26 08:57:43;;;;;;;4.57;3.53;;;;;;;;;;5065344;28;20225;-87
2023/04/26 09:00:12;;;;;;;3.07;2.77;;;;;;;;;;5063191;28;20209;-88
2023/04/26 09:02:41;;;;;;;4.03;3.53;;;;;;;;;;5072302;28;20208;-87
2023/04/26 09:05:09;;;;;;;14.33;12.93;;;;;;;;;;5060811;28;20210;-89
2023/04/26 09:07:42;;;;;;;9.00;8.20;;;;;;;;;;5066100;28;20250;-87
2023/04/26 09:10:10;;;;;;;6.97;6.20;;;;;;;;;;5069453;28;20295;-88
2023/04/26 09:12:37;;;;;;;3.73;3.43;;;;;;;;;;5076222;28;20342;-87
2023/04/26 09:15:06;;;;;;;3.37;3.07;;;;;;;;;;5076361;28;20216;-87
2023/04/26 09:17:35;;;;;;;3.47;3.17;;;;;;;;;;5068853;28;20202;-87
2023/04/26 09:20:05;;;;;;;5.60;5.07;;;;;;;;;;5056975;28;20248;-88
2023/04/26 09:22:33;;;;;;;3.67;3.37;;;;;;;;;;5075475;28;20319;-88
2023/04/26 09:25:02;;;;;;;3.20;2.97;;;;;;;;;;5062583;28;20205;-87
2023/04/26 09:27:33;;;;;;;9.10;8.13;;;;;;;;;;5066183;28;20287;-88
2023/04/26 09:30:05;;;;;;;6.50;3.30;;;;;;;;;;5059246;28;20266;-87
2023/04/26 09:32:50;;;;;;;3.60;3.23;;;;;;;;;;5075340;28;20236;-87
2023/04/26 09:35:28;;;;;;;4.30;4.00;;;;;;;;;;5048495;28;20637;-88
2023/04/26 09:37:57;;;;;;;3.07;2.80;;;;;;;;;;5073547;28;20231;-87
2023/04/26 09:40:27;;;;;;;2.67;2.47;;;;;;;;;;5055775;28;20210;-87
2023/04/26 09:42:59;;;;;;;3.67;2.60;;;;;;;;;;5069085;28;20226;-87
2023/04/26 09:45:26;;;;;;;3.17;2.97;;;;;;;;;;5055756;28;20210;-87
2023/04/26 09:47:54;;;;;;;3.77;3.37;;;;;;;;;;5073531;28;20209;-87
2023/04/26 09:50:30;;;;;;;2.93;2.73;;;;;;;;;;5075238;28;20214;-87
2023/04/26 09:52:57;;;;;;;3.37;2.50;;;;;;;;;;5070464;28;20570;-88
2023/04/26 09:55:30;;;;;;;3.33;3.03;;;;;;;;;;5055764;28;20215;-88
2023/04/26 09:57:59;;;;;;;3.33;3.13;;;;;;;;;;5074120;28;20264;-87
2023/04/26 10:00:26;;;;;;;3.97;3.67;;;;;;;;;;5062569;28;20208;-88
2023/04/26 10:02:54;;;;;;;3.30;3.00;;;;;;;;;;5075199;28;20226;-88
2023/04/26 10:05:21;;;;;;;4.00;2.57;;;;;;;;;;5074980;28;20219;-88
2023/04/26 10:07:49;;;;;;;2.97;2.77;;;;;;;;;;5049686;28;20222;-88
2023/04/26 10:10:17;;;;;;;4.03;2.77;;;;;;;;;;5062145;28;20209;-88
2023/04/26 10:12:46;;;;;;;2.67;2.47;;;;;;;;;;5067399;28;20198;-88
2023/04/26 10:15:12;;;;;;;4.90;2.60;;;;;;;;;;5068561;28;20217;-88
2023/04/26 10:17:39;;;;;;;3.23;2.93;;;;;;;;;;5063044;28;20653;-87
2023/04/26 10:20:11;;;;;;;3.10;2.80;;;;;;;;;;5073772;28;20209;-88
2023/04/26 10:22:45;;;;;;;6.07;4.63;;;;;;;;;;5063642;28;20672;-88
2023/04/26 10:25:12;;;;;;;2.63;2.43;;;;;;;;;;5074609;28;20687;-88
2023/04/26 10:27:51;;;;;;;4.03;2.47;;;;;;;;;;5074664;28;20633;-87
2023/04/26 10:30:20;;;;;;;2.83;2.63;;;;;;;;;;5074910;28;20267;-88
2023/04/26 10:33:17;;;;;;;3.60;2.40;;;;;;;;;;5074709;28;20215;-88
2023/04/26 10:36:08;;;;;;;5.20;2.43;;;;;;;;;;5054630;28;20213;-87
2023/04/26 10:38:38;;;;;;;2.47;2.27;;;;;;;;;;5074310;28;20296;-88
2023/04/26 10:41:33;;;;;;;1.87;1.77;;;;;;;;;;5074957;28;20267;-89
2023/04/26 10:44:38;;;;;;;2.80;1.63;;;;;;;;;;5063437;28;20237;-88
2023/04/26 10:47:05;;;;;;;2.20;2.03;;;;;;;;;;5054606;28;20296;-88
2023/04/26 10:49:44;;;;;;;1.73;1.63;;;;;;;;;;5057560;28;20266;-89
2023/04/26 10:52:13;;;;;;;2.60;2.40;;;;;;;;;;5074510;28;20215;-87
2023/04/26 10:54:51;;;;;;;3.10;2.80;;;;;;;;;;5074336;28;20219;-87
2023/04/26 10:57:19;;;;;;;1.80;1.70;;;;;;;;;;5060738;28;20238;-88
2023/04/26 11:00:17;;;;;;;7.17;5.33;;;;;;;;;;5066653;28;20300;-89
2023/04/26 11:02:53;;;;;;;4.20;3.70;;;;;;;;;;5055344;28;20213;-90
2023/04/26 11:05:41;;;;;;;8.57;6.30;;;;;;;;;;5074121;28;20205;-88
2023/04/26 11:08:09;;;;;;;9.67;7.33;;;;;;;;;;5064278;28;20214;-88
2023/04/26 11:10:38;;;;;;;4.20;3.90;;;;;;;;;;5067843;28;20240;-89
2023/04/26 11:13:05;;;;;;;4.23;3.90;;;;;;;;;;5054342;28;20712;-89
2023/04/26 11:15:34;;;;;;;3.63;3.33;;;;;;;;;;5071928;28;20213;-89
2023/04/26 11:18:03;;;;;;;3.30;3.00;;;;;;;;;;5073996;28;20210;-88
2023/04/26 11:20:31;;;;;;;5.90;2.83;;;;;;;;;;5068060;28;20297;-88
2023/04/26 11:22:58;;;;;;;2.80;2.60;;;;;;;;;;5053836;28;20207;-87
2023/04/26 11:25:26;;;;;;;2.83;2.70;;;;;;;;;;5066940;28;20241;-88
2023/04/26 11:27:57;;;;;;;4.40;4.03;;;;;;;;;;5066986;28;20247;-89
2023/04/26 11:30:24;;;;;;;3.23;2.90;;;;;;;;;;5040749;28;20689;-88
2023/04/26 11:32:52;;;;;;;3.53;3.23;;;;;;;;;;5067058;28;20218;-89
2023/04/26 11:35:21;;;;;;;6.97;6.27;;;;;;;;;;5053880;28;20209;-89
2023/04/26 11:37:50;;;;;;;7.80;6.37;;;;;;;;;;5066937;28;20235;-89
2023/04/26 11:40:18;;;;;;;6.43;5.40;;;;;;;;;;5053227;28;20202;-88
2023/04/26 11:42:45;;;;;;;4.57;4.17;;;;;;;;;;5055527;28;20210;-89
2023/04/26 11:45:12;;;;;;;2.60;2.40;;;;;;;;;;5073260;28;20715;-89
2023/04/26 11:47:39;;;;;;;2.80;2.60;;;;;;;;;;5070716;28;20205;-88
2023/04/26 11:50:09;;;;;;;2.40;2.30;;;;;;;;;;5054025;28;20221;-89
2023/04/26 11:52:36;;;;;;;5.63;2.67;;;;;;;;;;5068323;28;20213;-89
2023/04/26 11:55:04;;;;;;;3.17;2.87;;;;;;;;;;5064082;28;20275;-89
2023/04/26 11:57:32;;;;;;;4.30;4.00;;;;;;;;;;5066401;28;20237;-89
2023/04/26 12:00:14;;;;;;;3.67;3.30;;;;;;;;;;5062140;28;20213;-88
2023/04/26 12:02:45;;;;;;;3.60;3.23;;;;;;;;;;5060467;28;20212;-89
2023/04/26 12:05:21;;;;;;;3.03;2.83;;;;;;;;;;5057048;28;20682;-88
2023/04/26 12:07:50;;;;;;;2.20;2.07;;;;;;;;;;5046480;28;20269;-88
2023/04/26 12:10:18;;;;;;;3.13;2.83;;;;;;;;;;5059585;28;20229;-89
2023/04/26 12:12:48;;;;;;;5.27;4.53;;;;;;;;;;5073062;28;20205;-89
2023/04/26 12:15:16;;;;;;;15.17;9.93;;;;;;;;;;5068951;28;20295;-88
2023/04/26 12:17:55;;;;;;;8.63;5.80;;;;;;;;;;5041912;28;20216;-89
2023/04/26 12:20:35;;;;;;;7.07;4.70;;;;;;;;;;5070172;28;20690;-88
2023/04/26 12:23:06;;;;;;;4.63;4.13;;;;;;;;;;5059737;28;20688;-88
2023/04/26 12:25:34;;;;;;;5.27;4.77;;;;;;;;;;5039238;28;20702;-89
2023/04/26 12:28:01;;;;;;;3.97;3.30;;;;;;;;;;5065737;28;20262;-88
2023/04/26 12:30:29;;;;;;;2.80;2.50;;;;;;;;;;5065680;28;20335;-89
2023/04/26 12:32:56;;;;;;;4.17;3.77;;;;;;;;;;5066355;28;20216;-88
2023/04/26 12:35:23;;;;;;;5.27;4.50;;;;;;;;;;5060585;28;20204;-89
2023/04/26 12:37:54;;;;;;;3.27;3.00;;;;;;;;;;5072727;28;20240;-88
2023/04/26 12:40:21;;;;;;;2.20;2.10;;;;;;;;;;5072368;28;20213;-88
2023/04/26 12:42:49;;;;;;;4.77;2.93;;;;;;;;;;5069591;28;20270;-89
2023/04/26 12:45:17;;;;;;;9.40;6.87;;;;;;;;;;5061365;28;20232;-88
2023/04/26 12:47:44;;;;;;;112.20;49.07;;;;;;;;;;5072545;28;20583;-89
2023/04/26 12:50:12;;;;;;;65.67;31.77;;;;;;;;;;5063626;28;20710;-89
2023/04/26 12:52:39;;;;;;;27.83;15.03;;;;;;;;;;5068741;28;20235;-88
2023/04/26 12:55:09;;;;;;;99.57;48.40;;;;;;;;;;5063155;28;21117;-89
2023/04/26 12:57:36;;;;;;;224.63;112.33;;;;;;;;;;5068334;28;20255;-89
2023/04/26 13:00:05;;;;;;;117.93;54.53;;;;;;;;;;5072436;28;20259;-89
2023/04/26 13:02:32;;;;;;;37.30;21.93;;;;;;;;;;5055591;28;20267;-89
2023/04/26 13:05:00;;;;;;;18.03;11.43;;;;;;;;;;5061947;28;20241;-89
2023/04/26 13:07:26;;;;;;;13.03;9.97;;;;;;;;;;5071971;28;20594;-89
2023/04/26 13:09:54;;;;;;;26.03;18.50;;;;;;;;;;5072182;28;20209;-91
2023/04/26 13:12:22;;;;;;;6.00;5.40;;;;;;;;;;5067750;28;20209;-91
2023/04/26 13:14:49;;;;;;;4.93;4.33;;;;;;;;;;5052206;28;20205;-92
2023/04/26 13:17:15;;;;;;;4.33;3.93;;;;;;;;;;5065575;28;20692;-90
2023/04/26 13:19:42;;;;;;;3.20;3.00;;;;;;;;;;5051907;28;20219;-87
2023/04/26 13:22:11;;;;;;;2.83;2.63;;;;;;;;;;5065497;28;20214;-86
2023/04/26 13:24:38;;;;;;;3.10;2.90;;;;;;;;;;5064167;28;21047;-87
2023/04/26 13:27:05;;;;;;;4.57;4.13;;;;;;;;;;5071702;28;20220;-87
2023/04/26 13:29:34;;;;;;;4.47;3.00;;;;;;;;;;5071825;28;20561;-87
2023/04/26 13:32:00;;;;;;;2.30;2.10;;;;;;;;;;5052412;28;20213;-86
2023/04/26 13:34:27;;;;;;;6.03;4.60;;;;;;;;;;5064362;28;20205;-86
2023/04/26 13:36:55;;;;;;;5.97;4.90;;;;;;;;;;5071399;28;20207;-86
2023/04/26 13:39:22;;;;;;;4.93;4.43;;;;;;;;;;5071830;28;20215;-87
2023/04/26 13:41:50;;;;;;;46.17;28.90;;;;;;;;;;5051535;28;20220;-87
2023/04/26 13:44:16;;;;;;;36.13;23.50;;;;;;;;;;5065038;28;20229;-87
2023/04/26 13:46:44;;;;;;;38.33;24.97;;;;;;;;;;5032352;28;20237;-89
2023/04/26 13:49:11;;;;;;;9.77;6.30;;;;;;;;;;5060016;28;20210;-88
2023/04/26 13:51:38;;;;;;;5.27;4.77;;;;;;;;;;5071711;28;20276;-87
2023/04/26 13:54:05;;;;;;;5.73;4.53;;;;;;;;;;5071707;28;20720;-88
2023/04/26 13:56:32;;;;;;;5.80;5.20;;;;;;;;;;5055343;28;20229;-88
2023/04/26 13:59:00;;;;;;;8.30;7.27;;;;;;;;;;5069887;28;20193;-87
2023/04/26 14:01:27;;;;;;;3.97;3.53;;;;;;;;;;5075897;28;20605;-87
2023/04/26 14:03:56;;;;;;;8.17;7.37;;;;;;;;;;5075308;28;20566;-88
2023/04/26 14:06:22;;;;;;;13.00;10.90;;;;;;;;;;5066829;28;20202;-88
2023/04/26 14:08:50;;;;;;;17.80;11.90;;;;;;;;;;5071222;28;20243;-88
2023/04/26 14:11:17;;;;;;;11.57;7.77;;;;;;;;;;5075237;28;20224;-88
2023/04/26 14:13:44;;;;;;;5.73;4.53;;;;;;;;;;5075151;28;20270;-88
2023/04/26 14:16:11;;;;;;;5.73;4.60;;;;;;;;;;5075199;28;20271;-88
2023/04/26 14:18:43;;;;;;;11.40;8.30;;;;;;;;;;5056354;28;20220;-88
2023/04/26 14:21:13;;;;;;;3.97;3.57;;;;;;;;;;5055014;28;20339;-88
2023/04/26 14:23:40;;;;;;;3.73;3.43;;;;;;;;;;5074908;28;20594;-88
2023/04/26 14:26:07;;;;;;;3.57;3.27;;;;;;;;;;5074561;28;20292;-87
2023/04/26 14:28:35;;;;;;;5.00;4.60;;;;;;;;;;5074607;28;20201;-88
2023/04/26 14:31:02;;;;;;;3.57;3.27;;;;;;;;;;5063820;28;20213;-86
2023/04/26 14:33:28;;;;;;;4.47;4.07;;;;;;;;;;5068031;28;20275;-88
2023/04/26 14:35:55;;;;;;;7.03;6.27;;;;;;;;;;5066349;28;20646;-88
2023/04/26 14:38:24;;;;;;;15.77;12.13;;;;;;;;;;5055605;28;20707;-89
2023/04/26 14:40:51;;;;;;;29.97;19.40;;;;;;;;;;5067011;28;20220;-88
2023/04/26 14:43:17;;;;;;;23.20;17.93;;;;;;;;;;5069238;28;20213;-88
2023/04/26 14:45:44;;;;;;;17.77;14.60;;;;;;;;;;5067044;28;20230;-87
2023/04/26 14:48:11;;;;;;;23.83;17.63;;;;;;;;;;5074602;28;20269;-88